createdAt,value
2023-01-17T00:01:49.176Z,56.16
2023-01-17T00:04:34.050Z,56.27
2023-01-17T00:07:19.235Z,56.10
2023-01-17T00:09:54.521Z,56.17
2023-01-17T00:12:21.931Z,56.08
2023-01-17T00:14:48.583Z,56.09
2023-01-17T00:17:15.475Z,56.09
2023-01-17T00:20:00.514Z,56.12
2023-01-17T00:22:49.866Z,56.14
2023-01-17T00:25:39.838Z,56.18
2023-01-17T00:28:06.656Z,56.08
2023-01-17T00:30:33.568Z,56.15
2023-01-17T00:33:00.511Z,56.10
2023-01-17T00:35:28.980Z,56.31
2023-01-17T00:38:10.541Z,56.31
2023-01-17T00:40:39.034Z,56.38
2023-01-17T00:43:25.018Z,56.43
2023-01-17T00:46:10.741Z,56.43
2023-01-17T00:48:56.551Z,56.47
2023-01-17T00:51:42.111Z,56.71
2023-01-17T00:54:27.387Z,56.64
2023-01-17T00:57:12.648Z,56.61
2023-01-17T00:59:57.742Z,56.74
2023-01-17T01:02:43.637Z,56.69
2023-01-17T01:05:29.865Z,56.79
2023-01-17T01:08:15.292Z,56.89
2023-01-17T01:11:01.408Z,57.08
2023-01-17T01:13:48.569Z,57.05
2023-01-17T01:16:35.000Z,56.98
2023-01-17T01:19:22.150Z,57.03
2023-01-17T01:22:07.220Z,57.19
2023-01-17T01:24:52.681Z,57.09
2023-01-17T01:27:37.799Z,57.23
2023-01-17T01:30:23.342Z,57.24
2023-01-17T01:33:08.271Z,57.08
2023-01-17T01:35:36.787Z,57.27
2023-01-17T01:38:03.778Z,57.29
2023-01-17T01:40:30.345Z,57.36
2023-01-17T01:42:59.781Z,57.41
2023-01-17T01:45:29.077Z,57.49
2023-01-17T01:48:03.271Z,57.50
2023-01-17T01:50:30.896Z,57.52
2023-01-17T01:53:01.199Z,57.54
2023-01-17T01:55:39.863Z,57.58
2023-01-17T01:58:27.886Z,57.59
2023-01-17T02:00:54.595Z,57.72
2023-01-17T02:03:24.698Z,57.82
2023-01-17T02:05:51.894Z,57.71
2023-01-17T02:08:20.761Z,57.69
2023-01-17T02:10:47.682Z,57.80
2023-01-17T02:13:16.934Z,57.80
2023-01-17T02:15:55.634Z,57.77
2023-01-17T02:18:41.012Z,57.87
2023-01-17T02:21:10.477Z,57.85
2023-01-17T02:24:09.469Z,57.77
2023-01-17T02:26:52.938Z,57.73
2023-01-17T02:29:22.422Z,57.69
2023-01-17T02:31:58.979Z,57.67
2023-01-17T02:34:33.662Z,57.66
2023-01-17T02:37:00.196Z,57.81
2023-01-17T02:39:37.659Z,57.88
2023-01-17T02:42:09.382Z,57.89
2023-01-17T02:44:43.507Z,57.79
2023-01-17T02:47:27.814Z,57.89
2023-01-17T02:49:58.190Z,57.96
2023-01-17T02:53:02.370Z,57.89
2023-01-17T02:55:38.009Z,57.94
2023-01-17T02:58:38.712Z,57.78
2023-01-17T03:01:30.219Z,57.83
2023-01-17T03:04:12.045Z,57.74
2023-01-17T03:06:58.922Z,57.63
2023-01-17T03:09:26.268Z,57.74
2023-01-17T03:11:53.375Z,57.59
2023-01-17T03:14:20.012Z,57.62
2023-01-17T03:16:46.664Z,57.63
2023-01-17T03:19:14.766Z,57.60
2023-01-17T03:21:41.302Z,57.67
2023-01-17T03:24:08.121Z,57.68
2023-01-17T03:26:34.932Z,57.78
2023-01-17T03:29:01.501Z,58.00
2023-01-17T03:31:28.120Z,58.10
2023-01-17T03:33:54.775Z,58.10
2023-01-17T03:36:21.314Z,58.31
2023-01-17T03:38:47.811Z,58.19
2023-01-17T03:41:14.419Z,58.44
2023-01-17T03:43:40.923Z,58.16
2023-01-17T03:46:18.866Z,58.30
2023-01-17T03:48:45.376Z,57.92
2023-01-17T03:51:11.947Z,58.25
2023-01-17T03:53:38.520Z,58.25
2023-01-17T03:56:05.358Z,58.26
2023-01-17T03:58:31.929Z,58.29
2023-01-17T04:00:58.497Z,58.32
2023-01-17T04:03:25.020Z,58.26
2023-01-17T04:05:51.876Z,58.36
2023-01-17T04:08:18.435Z,58.43
2023-01-17T04:10:44.944Z,58.31
2023-01-17T04:13:11.470Z,58.50
2023-01-17T04:15:38.666Z,58.53
2023-01-17T04:18:06.273Z,58.53
2023-01-17T04:20:38.037Z,58.55
2023-01-17T04:23:05.119Z,58.62
2023-01-17T04:25:31.747Z,58.46
2023-01-17T04:27:59.368Z,58.49
2023-01-17T04:30:27.039Z,58.66
2023-01-17T04:32:53.744Z,58.63
2023-01-17T04:35:20.492Z,58.71
2023-01-17T04:37:47.192Z,58.53
2023-01-17T04:40:14.180Z,58.60
2023-01-17T04:42:40.836Z,58.56
2023-01-17T04:45:08.194Z,58.55
2023-01-17T04:47:34.654Z,58.60
2023-01-17T04:50:01.145Z,58.77
2023-01-17T04:52:27.780Z,58.72
2023-01-17T04:54:54.296Z,58.77
2023-01-17T04:57:21.319Z,58.79
2023-01-17T04:59:47.899Z,58.77
2023-01-17T05:02:14.719Z,58.73
2023-01-17T05:04:41.227Z,58.76
2023-01-17T05:07:07.808Z,58.68
2023-01-17T05:09:34.364Z,58.74
2023-01-17T05:12:00.952Z,58.83
2023-01-17T05:14:27.536Z,58.76
2023-01-17T05:16:55.216Z,59.03
2023-01-17T05:19:22.361Z,58.75
2023-01-17T05:21:48.924Z,58.86
2023-01-17T05:24:15.550Z,58.88
2023-01-17T05:26:43.164Z,58.97
2023-01-17T05:29:10.218Z,58.80
2023-01-17T05:31:36.892Z,58.99
2023-01-17T05:34:04.140Z,58.93
2023-01-17T05:36:30.804Z,58.99
2023-01-17T05:38:57.412Z,58.94
2023-01-17T05:41:23.886Z,58.93
2023-01-17T05:43:50.459Z,59.07
2023-01-17T05:46:18.036Z,59.15
2023-01-17T05:48:44.690Z,59.04
2023-01-17T05:51:11.307Z,59.32
2023-01-17T05:53:37.919Z,59.09
2023-01-17T05:56:04.692Z,59.14
2023-01-17T05:58:31.315Z,59.26
2023-01-17T06:00:57.850Z,59.33
2023-01-17T06:03:24.447Z,59.31
2023-01-17T06:05:51.171Z,59.36
2023-01-17T06:08:17.805Z,59.38
2023-01-17T06:10:44.348Z,59.34
2023-01-17T06:13:14.341Z,59.48
2023-01-17T06:15:41.377Z,59.29
2023-01-17T06:18:12.392Z,59.29
2023-01-17T06:20:39.663Z,59.11
2023-01-17T06:23:08.920Z,59.30
2023-01-17T06:25:40.621Z,59.21
2023-01-17T06:28:07.709Z,59.33
2023-01-17T06:30:34.650Z,59.32
2023-01-17T06:33:01.374Z,59.34
2023-01-17T06:35:28.084Z,59.19
2023-01-17T06:37:55.767Z,59.25
2023-01-17T06:40:22.727Z,59.09
2023-01-17T06:42:49.329Z,59.22
2023-01-17T06:45:16.022Z,59.08
2023-01-17T06:47:42.995Z,59.17
2023-01-17T06:50:12.513Z,59.37
2023-01-17T06:52:39.943Z,59.21
2023-01-17T06:55:07.444Z,59.21
2023-01-17T06:57:33.971Z,59.72
2023-01-17T07:00:00.637Z,59.51
2023-01-17T07:02:27.194Z,59.48
2023-01-17T07:04:53.723Z,59.46
2023-01-17T07:07:20.374Z,59.64
2023-01-17T07:09:46.955Z,59.58
2023-01-17T07:12:13.908Z,59.39
2023-01-17T07:14:40.480Z,59.15
2023-01-17T07:17:07.062Z,59.10
2023-01-17T07:19:33.529Z,58.80
2023-01-17T07:22:00.118Z,58.84
2023-01-17T07:24:26.691Z,58.66
2023-01-17T07:26:53.533Z,58.48
2023-01-17T07:29:20.045Z,58.38
2023-01-17T07:31:48.664Z,58.17
2023-01-17T07:34:15.239Z,57.95
2023-01-17T07:36:41.745Z,57.88
2023-01-17T07:39:09.614Z,57.73
2023-01-17T07:41:41.311Z,57.49
2023-01-17T07:44:08.832Z,57.23
2023-01-17T07:46:35.421Z,57.46
2023-01-17T07:49:02.244Z,57.28
2023-01-17T07:51:29.365Z,57.11
2023-01-17T07:53:55.993Z,57.04
2023-01-17T07:56:22.564Z,57.03
2023-01-17T07:58:49.287Z,57.17
2023-01-17T08:01:16.324Z,56.91
2023-01-17T08:03:43.264Z,56.91
2023-01-17T08:06:22.036Z,56.88
2023-01-17T08:08:49.053Z,56.87
2023-01-17T08:11:15.967Z,56.80
2023-01-17T08:13:42.617Z,56.82
2023-01-17T08:16:13.072Z,56.92
2023-01-17T08:18:40.132Z,56.64
2023-01-17T08:21:14.351Z,56.71
2023-01-17T08:23:40.908Z,56.76
2023-01-17T08:26:07.465Z,56.66
2023-01-17T08:28:34.465Z,56.69
2023-01-17T08:31:10.616Z,56.77
2023-01-17T08:33:37.343Z,56.58
2023-01-17T08:36:04.024Z,56.68
2023-01-17T08:38:31.116Z,56.58
2023-01-17T08:41:00.971Z,56.51
2023-01-17T08:43:27.519Z,56.51
2023-01-17T08:45:55.986Z,56.55
2023-01-17T08:48:25.612Z,56.46
2023-01-17T08:50:52.146Z,56.31
2023-01-17T08:53:21.620Z,56.40
2023-01-17T08:55:48.216Z,56.32
2023-01-17T08:58:14.883Z,56.36
2023-01-17T09:00:41.490Z,56.22
2023-01-17T09:03:11.112Z,56.18
2023-01-17T09:05:37.584Z,56.01
2023-01-17T09:08:05.555Z,56.17
2023-01-17T09:10:32.085Z,55.90
2023-01-17T09:12:58.687Z,55.77
2023-01-17T09:15:25.902Z,56.09
2023-01-17T09:17:56.403Z,55.90
2023-01-17T09:20:23.962Z,55.85
2023-01-17T09:22:51.297Z,55.76
2023-01-17T09:25:19.970Z,55.84
2023-01-17T09:27:46.971Z,55.71
2023-01-17T09:30:14.145Z,55.69
2023-01-17T09:32:40.748Z,55.74
2023-01-17T09:35:08.711Z,55.76
2023-01-17T09:37:35.578Z,55.74
2023-01-17T09:40:02.219Z,55.55
2023-01-17T09:42:38.202Z,55.48
2023-01-17T09:45:05.637Z,55.67
2023-01-17T09:47:44.009Z,55.42
2023-01-17T09:50:47.507Z,55.40
2023-01-17T09:53:16.961Z,55.28
2023-01-17T09:55:54.676Z,55.06
2023-01-17T09:58:24.692Z,55.09
2023-01-17T10:01:19.225Z,54.93
2023-01-17T10:04:06.362Z,55.30
2023-01-17T10:06:53.848Z,55.07
2023-01-17T10:09:38.205Z,54.98
2023-01-17T10:12:30.120Z,54.92
2023-01-17T10:15:07.324Z,54.75
2023-01-17T10:17:52.113Z,54.67
2023-01-17T10:20:46.973Z,54.74
2023-01-17T10:23:31.666Z,54.66
2023-01-17T10:26:00.907Z,54.57
2023-01-17T10:28:48.794Z,54.44
2023-01-17T10:31:26.737Z,54.48
2023-01-17T10:33:57.143Z,54.54
2023-01-17T10:36:29.665Z,54.49
2023-01-17T10:39:00.758Z,54.45
2023-01-17T10:41:31.203Z,54.27
2023-01-17T10:44:07.059Z,54.14
2023-01-17T10:46:59.656Z,54.23
2023-01-17T10:49:28.385Z,54.40
2023-01-17T10:52:16.650Z,54.38
2023-01-17T10:55:21.798Z,54.39
2023-01-17T10:57:48.954Z,54.39
2023-01-17T11:00:30.423Z,54.04
2023-01-17T11:02:57.329Z,54.27
2023-01-17T11:05:30.357Z,54.10
2023-01-17T11:08:07.850Z,53.93
2023-01-17T11:10:46.537Z,53.98
2023-01-17T11:13:36.556Z,53.79
2023-01-17T11:16:06.768Z,53.91
2023-01-17T11:18:35.690Z,53.82
2023-01-17T11:21:20.770Z,53.67
2023-01-17T11:23:50.073Z,53.74
2023-01-17T11:26:31.213Z,53.58
2023-01-17T11:29:34.632Z,53.74
2023-01-17T11:32:21.402Z,53.66
2023-01-17T11:35:10.603Z,53.60
2023-01-17T11:37:38.011Z,53.63
2023-01-17T11:40:09.413Z,53.59
2023-01-17T11:42:37.892Z,53.59
2023-01-17T11:45:30.464Z,53.57
2023-01-17T11:48:09.964Z,53.53
2023-01-17T11:50:47.989Z,53.44
2023-01-17T11:53:28.352Z,53.49
2023-01-17T11:56:08.555Z,53.20
2023-01-17T11:58:40.724Z,53.44
2023-01-17T12:01:42.820Z,53.28
2023-01-17T12:04:15.188Z,53.47
2023-01-17T12:07:00.571Z,53.31
2023-01-17T12:09:42.377Z,53.31
2023-01-17T12:13:04.870Z,53.24
2023-01-17T12:16:02.227Z,53.21
2023-01-17T12:18:34.836Z,53.19
2023-01-17T12:21:21.317Z,53.00
2023-01-17T12:23:58.721Z,53.05
2023-01-17T12:26:42.877Z,52.98
2023-01-17T12:29:28.404Z,53.04
2023-01-17T12:32:10.107Z,52.92
2023-01-17T12:34:52.425Z,52.89
2023-01-17T12:37:26.286Z,52.82
2023-01-17T12:40:08.057Z,52.89
2023-01-17T12:42:38.074Z,52.91
2023-01-17T12:45:08.915Z,52.72
2023-01-17T12:47:42.898Z,52.64
2023-01-17T12:50:39.851Z,52.74
2023-01-17T12:53:24.607Z,52.43
2023-01-17T12:55:56.893Z,52.65
2023-01-17T12:58:28.898Z,52.63
2023-01-17T13:01:03.141Z,52.79
2023-01-17T13:03:42.554Z,52.77
2023-01-17T13:06:16.962Z,52.74
2023-01-17T13:08:46.745Z,52.68
2023-01-17T13:11:33.554Z,52.64
2023-01-17T13:14:00.562Z,52.64
2023-01-17T13:16:27.118Z,52.61
2023-01-17T13:18:54.079Z,52.48
2023-01-17T13:21:39.204Z,52.50
2023-01-17T13:24:15.996Z,52.66
2023-01-17T13:27:09.938Z,52.56
2023-01-17T13:29:40.510Z,52.50
2023-01-17T13:32:41.007Z,52.53
2023-01-17T13:35:17.357Z,52.31
2023-01-17T13:37:49.857Z,52.35
2023-01-17T13:40:31.859Z,52.32
2023-01-17T13:43:01.235Z,52.29
2023-01-17T13:45:31.285Z,52.31
2023-01-17T13:48:34.644Z,52.11
2023-01-17T13:51:11.333Z,52.15
2023-01-17T13:53:40.902Z,52.19
2023-01-17T13:56:14.936Z,52.10
2023-01-17T13:58:51.897Z,52.24
2023-01-17T14:01:24.804Z,52.15
2023-01-17T14:03:54.299Z,52.14
2023-01-17T14:06:41.055Z,51.99
2023-01-17T14:09:26.074Z,52.15
2023-01-17T14:11:58.267Z,52.05
2023-01-17T14:14:40.177Z,51.93
2023-01-17T14:17:15.869Z,52.09
2023-01-17T14:19:43.416Z,51.96
2023-01-17T14:22:15.245Z,51.88
2023-01-17T14:25:10.123Z,51.99
2023-01-17T14:27:42.763Z,52.10
2023-01-17T14:30:18.433Z,52.14
2023-01-17T14:33:08.530Z,51.94
2023-01-17T14:35:38.069Z,51.88
2023-01-17T14:38:31.722Z,51.98
2023-01-17T14:41:09.379Z,51.90
2023-01-17T14:43:39.383Z,51.75
2023-01-17T14:46:08.614Z,51.90
2023-01-17T14:48:39.793Z,51.90
2023-01-17T14:51:12.736Z,51.71
2023-01-17T14:53:39.497Z,51.83
2023-01-17T14:56:17.096Z,51.72
2023-01-17T14:58:46.501Z,51.63
2023-01-17T15:01:15.731Z,51.76
2023-01-17T15:03:45.744Z,51.69
2023-01-17T15:06:37.553Z,51.71
2023-01-17T15:09:21.224Z,51.62
2023-01-17T15:11:49.157Z,51.67
2023-01-17T15:14:37.615Z,51.62
2023-01-17T15:17:21.225Z,51.72
2023-01-17T15:19:55.924Z,51.64
2023-01-17T15:22:23.703Z,51.71
2023-01-17T15:24:50.545Z,51.66
2023-01-17T15:27:17.269Z,51.51
2023-01-17T15:29:47.162Z,51.58
2023-01-17T15:32:22.628Z,51.50
2023-01-17T15:34:50.574Z,51.61
2023-01-17T15:37:29.586Z,51.52
2023-01-17T15:40:18.589Z,51.56
2023-01-17T15:42:48.699Z,51.52
2023-01-17T15:45:20.004Z,51.47
2023-01-17T15:47:46.930Z,51.69
2023-01-17T15:50:24.668Z,51.54
2023-01-17T15:52:53.143Z,51.80
2023-01-17T15:55:29.611Z,51.49
2023-01-17T15:57:56.336Z,51.41
2023-01-17T16:00:26.365Z,51.50
2023-01-17T16:02:57.737Z,51.65
2023-01-17T16:05:33.859Z,51.72
2023-01-17T16:08:03.424Z,51.59
2023-01-17T16:10:38.075Z,51.57
2023-01-17T16:13:06.344Z,51.85
2023-01-17T16:15:35.285Z,51.82
2023-01-17T16:18:14.021Z,51.68
2023-01-17T16:20:43.973Z,51.76
2023-01-17T16:23:10.726Z,51.86
2023-01-17T16:25:38.027Z,51.74
2023-01-17T16:28:05.280Z,51.84
2023-01-17T16:30:32.393Z,51.76
2023-01-17T16:32:59.265Z,51.79
2023-01-17T16:35:28.210Z,51.75
2023-01-17T16:37:57.237Z,51.58
2023-01-17T16:40:26.332Z,51.92
2023-01-17T16:42:53.392Z,51.78
2023-01-17T16:45:19.977Z,51.80
2023-01-17T16:47:47.898Z,51.74
2023-01-17T16:50:16.754Z,51.96
2023-01-17T16:52:43.288Z,51.90
2023-01-17T16:55:12.886Z,51.87
2023-01-17T16:57:39.552Z,51.84
2023-01-17T17:00:06.867Z,51.76
2023-01-17T17:02:33.497Z,51.69
2023-01-17T17:05:00.159Z,51.81
2023-01-17T17:07:26.624Z,51.98
2023-01-17T17:09:54.178Z,51.88
2023-01-17T17:12:20.729Z,51.72
2023-01-17T17:14:47.228Z,51.85
2023-01-17T17:17:13.884Z,51.77
2023-01-17T17:19:40.425Z,51.82
2023-01-17T17:22:06.935Z,51.72
2023-01-17T17:24:33.603Z,51.86
2023-01-17T17:27:00.163Z,51.89
2023-01-17T17:29:26.705Z,51.77
2023-01-17T17:31:53.848Z,51.68
2023-01-17T17:34:22.406Z,51.76
2023-01-17T17:36:48.940Z,51.71
2023-01-17T17:39:15.804Z,51.91
2023-01-17T17:41:43.728Z,51.81
2023-01-17T17:44:10.369Z,51.81
2023-01-17T17:46:37.365Z,51.78
2023-01-17T17:49:04.941Z,51.64
2023-01-17T17:51:37.181Z,51.42
2023-01-17T17:54:06.400Z,51.53
2023-01-17T17:56:33.948Z,51.88
2023-01-17T17:59:01.215Z,51.51
2023-01-17T18:01:28.366Z,51.49
2023-01-17T18:03:57.338Z,51.47
2023-01-17T18:06:24.408Z,51.80
2023-01-17T18:08:52.252Z,51.64
2023-01-17T18:11:23.021Z,51.62
2023-01-17T18:13:51.096Z,51.58
2023-01-17T18:16:26.698Z,51.58
2023-01-17T18:18:55.106Z,51.67
2023-01-17T18:21:48.801Z,51.60
2023-01-17T18:24:16.814Z,51.67
2023-01-17T18:26:54.307Z,51.88
2023-01-17T18:29:22.173Z,51.76
2023-01-17T18:31:50.322Z,51.78
2023-01-17T18:34:24.382Z,51.53
2023-01-17T18:36:51.953Z,51.59
2023-01-17T18:39:20.932Z,51.44
2023-01-17T18:41:48.433Z,51.72
2023-01-17T18:44:15.379Z,51.68
2023-01-17T18:46:42.180Z,51.41
2023-01-17T18:49:14.786Z,51.57
2023-01-17T18:51:43.809Z,51.56
2023-01-17T18:54:11.675Z,51.34
2023-01-17T18:56:38.554Z,51.44
2023-01-17T18:59:06.803Z,51.57
2023-01-17T19:01:35.941Z,51.66
2023-01-17T19:04:04.462Z,51.40
2023-01-17T19:06:49.361Z,51.49
2023-01-17T19:09:16.915Z,51.41
2023-01-17T19:11:45.085Z,51.47
2023-01-17T19:14:12.707Z,51.52
2023-01-17T19:16:40.919Z,51.30
2023-01-17T19:19:10.760Z,51.24
2023-01-17T19:21:37.451Z,51.27
2023-01-17T19:24:04.469Z,51.34
2023-01-17T19:26:31.108Z,51.10
2023-01-17T19:28:59.006Z,51.21
2023-01-17T19:31:30.409Z,51.34
2023-01-17T19:33:58.505Z,51.23
2023-01-17T19:36:31.912Z,51.29
2023-01-17T19:39:04.789Z,51.19
2023-01-17T19:41:34.311Z,51.10
2023-01-17T19:44:05.962Z,51.07
2023-01-17T19:46:33.526Z,51.02
2023-01-17T19:49:01.110Z,51.05
2023-01-17T19:51:28.153Z,51.06
2023-01-17T19:53:55.076Z,51.03
2023-01-17T19:56:24.224Z,51.00
2023-01-17T19:58:52.120Z,51.07
2023-01-17T20:01:18.808Z,51.35
2023-01-17T20:03:46.552Z,50.97
2023-01-17T20:06:15.419Z,51.09
2023-01-17T20:08:42.046Z,51.17
2023-01-17T20:11:13.401Z,51.14
2023-01-17T20:13:41.080Z,51.21
2023-01-17T20:16:09.957Z,51.16
2023-01-17T20:18:37.341Z,51.09
2023-01-17T20:21:13.085Z,50.93
2023-01-17T20:23:46.847Z,51.02
2023-01-17T20:26:21.955Z,50.99
2023-01-17T20:28:51.340Z,50.99
2023-01-17T20:31:20.696Z,50.86
2023-01-17T20:33:50.287Z,51.05
2023-01-17T20:36:18.733Z,50.90
2023-01-17T20:38:45.961Z,50.90
2023-01-17T20:41:14.788Z,50.94
2023-01-17T20:43:48.528Z,50.94
2023-01-17T20:46:15.927Z,50.79
2023-01-17T20:48:50.648Z,50.99
2023-01-17T20:51:17.912Z,51.21
2023-01-17T20:53:45.674Z,51.07
2023-01-17T20:56:14.103Z,51.01
2023-01-17T20:58:41.242Z,51.28
2023-01-17T21:01:09.975Z,51.24
2023-01-17T21:03:37.998Z,51.04
2023-01-17T21:06:07.137Z,51.07
2023-01-17T21:08:35.561Z,51.18
2023-01-17T21:11:03.213Z,51.21
2023-01-17T21:13:29.899Z,51.14
2023-01-17T21:15:56.376Z,51.20
2023-01-17T21:18:24.124Z,51.13
2023-01-17T21:20:51.103Z,51.06
2023-01-17T21:23:18.109Z,51.17
2023-01-17T21:26:05.397Z,51.22
2023-01-17T21:28:34.845Z,51.24
2023-01-17T21:31:01.642Z,51.22
2023-01-17T21:33:29.492Z,51.15
2023-01-17T21:36:07.311Z,51.20
2023-01-17T21:38:34.112Z,51.11
2023-01-17T21:41:00.713Z,51.15
2023-01-17T21:43:27.357Z,50.96
2023-01-17T21:45:54.511Z,51.27
2023-01-17T21:48:21.200Z,51.16
2023-01-17T21:50:47.733Z,51.09
2023-01-17T21:53:14.328Z,51.10
2023-01-17T21:55:59.192Z,51.25
2023-01-17T21:58:44.250Z,51.25
2023-01-17T22:01:18.268Z,51.05
2023-01-17T22:03:49.294Z,51.08
2023-01-17T22:06:16.319Z,51.24
2023-01-17T22:08:43.203Z,51.23
2023-01-17T22:11:12.666Z,51.23
2023-01-17T22:13:41.097Z,51.22
2023-01-17T22:16:10.927Z,51.42
2023-01-17T22:18:39.388Z,51.61
2023-01-17T22:21:16.995Z,51.74
2023-01-17T22:23:54.220Z,52.04
2023-01-17T22:26:23.275Z,51.94
2023-01-17T22:28:50.298Z,52.36
2023-01-17T22:31:25.136Z,52.50
2023-01-17T22:33:54.495Z,52.58
2023-01-17T22:36:21.040Z,52.66
2023-01-17T22:38:48.167Z,52.78
2023-01-17T22:41:17.077Z,52.46
2023-01-17T22:43:46.750Z,52.28
2023-01-17T22:46:17.066Z,52.58
2023-01-17T22:48:43.832Z,52.47
2023-01-17T22:51:12.975Z,52.22
2023-01-17T22:53:41.301Z,52.25
2023-01-17T22:56:10.123Z,52.54
2023-01-17T22:58:36.656Z,52.31
2023-01-17T23:01:27.352Z,52.29
2023-01-17T23:04:01.994Z,52.31
2023-01-17T23:06:30.514Z,52.42
2023-01-17T23:08:59.655Z,52.25
2023-01-17T23:11:43.919Z,52.32
2023-01-17T23:14:16.645Z,52.58
2023-01-17T23:17:13.501Z,52.78
2023-01-17T23:19:44.985Z,52.77
2023-01-17T23:22:23.511Z,52.80
2023-01-17T23:24:50.038Z,52.76
2023-01-17T23:27:39.927Z,52.99
2023-01-17T23:30:10.929Z,52.89
2023-01-17T23:32:43.814Z,52.90
2023-01-17T23:35:10.404Z,53.05
2023-01-17T23:37:55.264Z,52.89
2023-01-17T23:40:22.214Z,53.07
2023-01-17T23:43:07.264Z,53.05
2023-01-17T23:45:35.669Z,53.11
2023-01-17T23:48:05.458Z,53.21
2023-01-17T23:50:32.996Z,53.56
2023-01-17T23:52:59.981Z,53.52
2023-01-17T23:55:26.809Z,53.76
2023-01-17T23:57:54.345Z,53.82
